Time;durP1;ratioP1;P1;durP2;ratioP2;P2;SDS_P1;SDS_P2;PMS_P1;PMS_P2;Temp;Humidity;BMP_temperature;BMP_pressure;BME280_temperature;BME280_humidity;BME280_pressure;Samples;Min_cycle;Max_cycle;Signal;HPM_P1;HPM_P2
2021/01/07 00:00:21;;;;;;;5.00;2.00;;;;;;;;;;5070494;28;20076;-59
2021/01/07 00:02:47;;;;;;;5.90;1.80;;;;;;;;;;5059658;28;20025;-60
2021/01/07 00:05:14;;;;;;;5.72;1.60;;;;;;;;;;5055923;28;20037;-59
2021/01/07 00:07:41;;;;;;;7.65;2.40;;;;;;;;;;5059047;28;20055;-59
2021/01/07 00:10:07;;;;;;;4.95;1.90;;;;;;;;;;5059315;28;20060;-59
2021/01/07 00:12:34;;;;;;;5.53;1.85;;;;;;;;;;5080596;28;20052;-59
2021/01/07 00:15:04;;;;;;;5.32;1.50;;;;;;;;;;5082645;28;20044;-60
2021/01/07 00:17:30;;;;;;;6.03;2.10;;;;;;;;;;5076024;28;20047;-59
2021/01/07 00:19:56;;;;;;;6.75;1.95;;;;;;;;;;5073215;28;20277;-60
2021/01/07 00:22:22;;;;;;;4.55;1.73;;;;;;;;;;5077107;28;20051;-60
2021/01/07 00:24:48;;;;;;;5.22;1.90;;;;;;;;;;5078742;28;20051;-60
2021/01/07 00:27:14;;;;;;;6.05;1.80;;;;;;;;;;5063149;28;20033;-61
2021/01/07 00:29:41;;;;;;;6.38;1.80;;;;;;;;;;5061359;28;20052;-61
2021/01/07 00:32:08;;;;;;;4.88;1.70;;;;;;;;;;5067831;28;20032;-60
2021/01/07 00:34:34;;;;;;;10.15;2.10;;;;;;;;;;5081103;28;20061;-60
2021/01/07 00:37:00;;;;;;;4.32;1.80;;;;;;;;;;5073488;28;20047;-59
2021/01/07 00:39:26;;;;;;;3.80;1.85;;;;;;;;;;5060104;28;20033;-59
2021/01/07 00:41:53;;;;;;;5.68;1.75;;;;;;;;;;5063357;28;20054;-60
2021/01/07 00:44:21;;;;;;;5.82;2.05;;;;;;;;;;5079529;28;20060;-59
2021/01/07 00:46:49;;;;;;;4.37;1.90;;;;;;;;;;5074347;28;20048;-59
2021/01/07 00:49:15;;;;;;;5.40;1.92;;;;;;;;;;5080398;28;20040;-59
2021/01/07 00:51:41;;;;;;;7.05;1.85;;;;;;;;;;5079622;28;20038;-59
2021/01/07 00:54:09;;;;;;;6.20;2.28;;;;;;;;;;5064041;28;20057;-59
2021/01/07 00:56:36;;;;;;;6.23;1.70;;;;;;;;;;5063540;28;20041;-59
2021/01/07 00:59:02;;;;;;;3.72;1.73;;;;;;;;;;5077778;28;20028;-59
2021/01/07 01:01:28;;;;;;;5.88;1.80;;;;;;;;;;5082743;28;20109;-59
2021/01/07 01:03:56;;;;;;;5.03;1.80;;;;;;;;;;5079627;28;20040;-59
2021/01/07 01:06:29;;;;;;;4.30;1.55;;;;;;;;;;5083748;28;20052;-59
2021/01/07 01:08:55;;;;;;;3.78;1.58;;;;;;;;;;5064457;28;20037;-59
2021/01/07 01:11:21;;;;;;;4.07;1.33;;;;;;;;;;5063192;28;20102;-59
2021/01/07 01:13:47;;;;;;;5.05;1.70;;;;;;;;;;5058955;28;20045;-59
2021/01/07 01:16:13;;;;;;;8.00;2.08;;;;;;;;;;5062722;28;20036;-59
2021/01/07 01:18:40;;;;;;;6.40;2.08;;;;;;;;;;5059122;28;20111;-59
2021/01/07 01:21:07;;;;;;;4.68;1.83;;;;;;;;;;5090971;28;20055;-59
2021/01/07 01:23:33;;;;;;;10.38;2.38;;;;;;;;;;5073851;28;20028;-59
2021/01/07 01:25:59;;;;;;;5.03;1.88;;;;;;;;;;5061858;28;20118;-59
2021/01/07 01:28:26;;;;;;;6.00;2.28;;;;;;;;;;5058829;28;20068;-59
2021/01/07 01:30:52;;;;;;;4.13;1.83;;;;;;;;;;5062261;28;20037;-61
2021/01/07 01:33:19;;;;;;;6.13;2.50;;;;;;;;;;5061021;28;20139;-61
2021/01/07 01:35:45;;;;;;;9.00;2.55;;;;;;;;;;5082651;28;20040;-59
2021/01/07 01:38:12;;;;;;;8.13;2.78;;;;;;;;;;5081831;28;20061;-61
2021/01/07 01:40:38;;;;;;;6.35;2.10;;;;;;;;;;5078898;28;20049;-59
2021/01/07 01:43:07;;;;;;;8.98;2.85;;;;;;;;;;5083159;28;20052;-59
2021/01/07 01:45:33;;;;;;;4.93;2.22;;;;;;;;;;5079739;28;20032;-60
2021/01/07 01:47:59;;;;;;;7.28;2.38;;;;;;;;;;5100219;28;20051;-60
2021/01/07 01:50:25;;;;;;;7.18;2.30;;;;;;;;;;5065975;28;20044;-59
2021/01/07 01:52:52;;;;;;;6.32;2.30;;;;;;;;;;5062667;28;20050;-59
2021/01/07 01:55:19;;;;;;;6.35;2.40;;;;;;;;;;5059800;28;20048;-59
2021/01/07 01:57:46;;;;;;;7.50;2.25;;;;;;;;;;5077478;28;20088;-59
2021/01/07 02:00:12;;;;;;;4.93;1.90;;;;;;;;;;5059154;28;20051;-59
2021/01/07 02:02:39;;;;;;;11.77;2.70;;;;;;;;;;5063593;28;20091;-59
2021/01/07 02:05:05;;;;;;;6.45;2.28;;;;;;;;;;5059941;28;20056;-59
2021/01/07 02:07:32;;;;;;;6.97;2.33;;;;;;;;;;5062937;28;20052;-59
2021/01/07 02:09:58;;;;;;;8.75;2.65;;;;;;;;;;5060413;28;20044;-59
2021/01/07 02:12:25;;;;;;;5.38;2.38;;;;;;;;;;5084827;28;20089;-62
2021/01/07 02:14:54;;;;;;;5.28;2.15;;;;;;;;;;5081278;28;20036;-62
2021/01/07 02:17:20;;;;;;;6.03;2.45;;;;;;;;;;5081087;28;20493;-61
2021/01/07 02:19:46;;;;;;;7.05;2.53;;;;;;;;;;5062232;28;20051;-62
2021/01/07 02:22:13;;;;;;;6.32;2.22;;;;;;;;;;5075300;28;20138;-61
2021/01/07 02:24:39;;;;;;;6.82;2.55;;;;;;;;;;5081714;28;20072;-61
2021/01/07 02:27:06;;;;;;;8.15;2.28;;;;;;;;;;5062733;28;20056;-61
2021/01/07 02:29:32;;;;;;;9.77;2.38;;;;;;;;;;5062360;28;20037;-59
2021/01/07 02:31:59;;;;;;;7.18;2.95;;;;;;;;;;5070941;28;20122;-59
2021/01/07 02:34:25;;;;;;;5.47;2.30;;;;;;;;;;5081002;28;20087;-59
2021/01/07 02:36:52;;;;;;;6.07;2.28;;;;;;;;;;5069766;28;20025;-59
2021/01/07 02:39:18;;;;;;;6.30;2.20;;;;;;;;;;5081446;28;20048;-60
2021/01/07 02:41:49;;;;;;;5.85;2.30;;;;;;;;;;5074548;28;20033;-59
2021/01/07 02:44:15;;;;;;;6.95;2.53;;;;;;;;;;5062725;28;20051;-59
2021/01/07 02:46:41;;;;;;;6.28;2.40;;;;;;;;;;5057327;28;20045;-59
2021/01/07 02:49:07;;;;;;;5.63;2.25;;;;;;;;;;5061799;28;20122;-59
2021/01/07 02:51:33;;;;;;;5.72;2.63;;;;;;;;;;5060494;28;20040;-59
2021/01/07 02:54:02;;;;;;;7.30;2.70;;;;;;;;;;5082161;28;20024;-59
2021/01/07 02:56:30;;;;;;;6.95;2.38;;;;;;;;;;5079087;28;20042;-59
2021/01/07 02:58:56;;;;;;;6.80;2.80;;;;;;;;;;5060536;28;20045;-59
2021/01/07 03:01:22;;;;;;;7.18;2.58;;;;;;;;;;5068838;28;20054;-59
2021/01/07 03:03:49;;;;;;;8.70;2.60;;;;;;;;;;5060976;28;20044;-59
2021/01/07 03:06:15;;;;;;;6.60;2.47;;;;;;;;;;5060952;28;20047;-59
2021/01/07 03:08:41;;;;;;;7.43;2.75;;;;;;;;;;5070473;28;20039;-59
2021/01/07 03:11:07;;;;;;;8.02;3.03;;;;;;;;;;5081558;28;20036;-60
2021/01/07 03:13:35;;;;;;;6.13;2.40;;;;;;;;;;5093740;28;20089;-59
2021/01/07 03:16:01;;;;;;;9.75;3.00;;;;;;;;;;5079354;28;20051;-62
2021/01/07 03:18:27;;;;;;;6.35;2.60;;;;;;;;;;5068278;28;20032;-61
2021/01/07 03:20:53;;;;;;;7.35;2.92;;;;;;;;;;5079708;28;20036;-61
2021/01/07 03:23:19;;;;;;;8.05;2.78;;;;;;;;;;5076286;28;20036;-60
2021/01/07 03:25:45;;;;;;;7.40;2.70;;;;;;;;;;5079342;28;20052;-59
2021/01/07 03:28:11;;;;;;;6.93;2.80;;;;;;;;;;5056557;28;20051;-59
2021/01/07 03:30:38;;;;;;;8.27;3.08;;;;;;;;;;5063166;28;20068;-59
2021/01/07 03:33:04;;;;;;;10.13;3.22;;;;;;;;;;5075092;28;20048;-60
2021/01/07 03:35:30;;;;;;;8.52;3.13;;;;;;;;;;5060145;28;20073;-59
2021/01/07 03:37:56;;;;;;;9.80;3.42;;;;;;;;;;5072076;28;20040;-59
2021/01/07 03:40:22;;;;;;;6.88;2.78;;;;;;;;;;5057896;28;20063;-61
2021/01/07 03:42:49;;;;;;;6.78;2.85;;;;;;;;;;5074985;28;20134;-60
2021/01/07 03:45:15;;;;;;;6.70;2.67;;;;;;;;;;5060942;28;20032;-59
2021/01/07 03:47:42;;;;;;;7.13;2.75;;;;;;;;;;5061923;28;20082;-59
2021/01/07 03:50:08;;;;;;;6.50;2.58;;;;;;;;;;5070649;28;20036;-59
2021/01/07 03:52:37;;;;;;;7.18;2.83;;;;;;;;;;5083122;28;20044;-59
2021/01/07 03:55:03;;;;;;;8.48;3.00;;;;;;;;;;5066412;28;20041;-60
2021/01/07 03:57:32;;;;;;;8.45;3.30;;;;;;;;;;5062383;28;20037;-60
2021/01/07 03:59:58;;;;;;;6.10;2.85;;;;;;;;;;5066824;28;20101;-59
2021/01/07 04:02:25;;;;;;;7.70;2.60;;;;;;;;;;5081633;28;20053;-59
2021/01/07 04:04:51;;;;;;;9.93;3.47;;;;;;;;;;5070608;28;20041;-59
2021/01/07 04:07:17;;;;;;;6.65;2.85;;;;;;;;;;5061044;28;20143;-59
2021/01/07 04:09:43;;;;;;;8.18;2.60;;;;;;;;;;5058490;28;20044;-59
2021/01/07 04:12:16;;;;;;;7.72;2.95;;;;;;;;;;5078689;28;20045;-59
2021/01/07 04:14:42;;;;;;;8.27;3.15;;;;;;;;;;5058596;28;20043;-59
2021/01/07 04:17:08;;;;;;;7.10;3.13;;;;;;;;;;5080663;28;20044;-59
2021/01/07 04:19:34;;;;;;;6.35;2.72;;;;;;;;;;5080222;28;20052;-59
2021/01/07 04:22:01;;;;;;;7.22;3.00;;;;;;;;;;5076981;28;20040;-60
2021/01/07 04:24:27;;;;;;;8.60;2.72;;;;;;;;;;5080958;28;20055;-60
2021/01/07 04:26:53;;;;;;;6.55;2.85;;;;;;;;;;5075715;28;20122;-60
2021/01/07 04:29:19;;;;;;;8.25;2.60;;;;;;;;;;5084165;28;20056;-59
2021/01/07 04:31:45;;;;;;;6.43;2.75;;;;;;;;;;5058085;28;20045;-59
2021/01/07 04:34:11;;;;;;;6.18;2.67;;;;;;;;;;5061853;28;20036;-59
2021/01/07 04:36:37;;;;;;;6.53;2.78;;;;;;;;;;5044221;28;20051;-60
2021/01/07 04:39:04;;;;;;;4.72;2.28;;;;;;;;;;5063172;28;20055;-60
2021/01/07 04:41:30;;;;;;;6.15;2.53;;;;;;;;;;5084729;28;20040;-60
2021/01/07 04:43:57;;;;;;;5.03;2.22;;;;;;;;;;5083707;28;20056;-59
2021/01/07 04:46:24;;;;;;;7.10;2.90;;;;;;;;;;5078309;28;20055;-62
2021/01/07 04:48:50;;;;;;;6.70;2.65;;;;;;;;;;5084249;28;20051;-59
2021/01/07 04:51:16;;;;;;;5.00;2.10;;;;;;;;;;5080944;28;20114;-59
2021/01/07 04:53:43;;;;;;;4.88;2.20;;;;;;;;;;5084278;28;20041;-60
2021/01/07 04:56:10;;;;;;;3.92;1.95;;;;;;;;;;5080801;28;20037;-60
2021/01/07 04:58:36;;;;;;;4.47;2.13;;;;;;;;;;5083740;28;20025;-59
2021/01/07 05:01:03;;;;;;;4.32;1.77;;;;;;;;;;5091242;28;20121;-59
2021/01/07 05:03:30;;;;;;;6.97;2.30;;;;;;;;;;5082597;28;20036;-59
2021/01/07 05:05:56;;;;;;;6.30;2.40;;;;;;;;;;5087351;28;20037;-59
2021/01/07 05:08:22;;;;;;;4.15;2.03;;;;;;;;;;5065844;28;20051;-59
2021/01/07 05:10:49;;;;;;;5.53;2.40;;;;;;;;;;5072820;28;20076;-60
2021/01/07 05:13:17;;;;;;;7.85;2.03;;;;;;;;;;5066294;28;20060;-59
2021/01/07 05:15:43;;;;;;;4.70;1.80;;;;;;;;;;5062043;28;20064;-59
2021/01/07 05:18:10;;;;;;;4.43;2.00;;;;;;;;;;5070633;28;20048;-59
2021/01/07 05:20:36;;;;;;;4.50;1.80;;;;;;;;;;5083139;28;20044;-59
2021/01/07 05:23:03;;;;;;;5.57;2.10;;;;;;;;;;5078057;28;20044;-60
2021/01/07 05:25:29;;;;;;;5.55;2.20;;;;;;;;;;5082836;28;20037;-60
2021/01/07 05:27:55;;;;;;;3.88;1.73;;;;;;;;;;5074491;28;20048;-60
2021/01/07 05:30:25;;;;;;;5.97;1.85;;;;;;;;;;5063676;28;20033;-59
2021/01/07 05:32:52;;;;;;;6.05;2.22;;;;;;;;;;5060717;28;20064;-60
2021/01/07 05:35:19;;;;;;;4.55;1.85;;;;;;;;;;5061274;28;20036;-59
2021/01/07 05:37:45;;;;;;;4.95;1.85;;;;;;;;;;5068122;28;20060;-59
2021/01/07 05:40:12;;;;;;;5.65;2.17;;;;;;;;;;5061931;28;20052;-60
2021/01/07 05:42:38;;;;;;;5.85;2.25;;;;;;;;;;5062518;28;20052;-60
2021/01/07 05:45:06;;;;;;;6.28;2.28;;;;;;;;;;5062174;28;20048;-60
2021/01/07 05:47:42;;;;;;;4.93;1.95;;;;;;;;;;5061268;28;20122;-60
2021/01/07 05:50:12;;;;;;;5.57;2.22;;;;;;;;;;5059731;28;20040;-60
2021/01/07 05:52:43;;;;;;;7.72;2.47;;;;;;;;;;5062465;28;20037;-60
2021/01/07 05:55:12;;;;;;;4.65;1.92;;;;;;;;;;5059863;28;20052;-59
2021/01/07 05:57:41;;;;;;;5.38;2.10;;;;;;;;;;5062296;28;20036;-60
2021/01/07 06:00:08;;;;;;;7.32;2.80;;;;;;;;;;5073515;28;20032;-59
2021/01/07 06:02:37;;;;;;;4.90;2.28;;;;;;;;;;5099894;28;20041;-59
2021/01/07 06:05:02;;;;;;;;;;;;;;;;;;5068753;28;20052;-60
2021/01/07 06:07:29;;;;;;;3.85;1.58;;;;;;;;;;5076988;28;19985;-59
2021/01/07 06:09:56;;;;;;;5.63;2.03;;;;;;;;;;5062749;28;20057;-60
2021/01/07 06:12:22;;;;;;;6.80;2.40;;;;;;;;;;5062910;28;20045;-59
2021/01/07 06:14:48;;;;;;;6.57;2.58;;;;;;;;;;5053895;28;20097;-60
2021/01/07 06:17:15;;;;;;;5.57;2.47;;;;;;;;;;5042945;28;20053;-59
2021/01/07 06:19:42;;;;;;;8.00;2.33;;;;;;;;;;5074893;28;20032;-60
2021/01/07 06:22:09;;;;;;;6.85;2.80;;;;;;;;;;5061709;28;20036;-60
2021/01/07 06:24:36;;;;;;;6.88;2.38;;;;;;;;;;5058366;28;20100;-59
2021/01/07 06:27:17;;;;;;;6.72;2.63;;;;;;;;;;5061761;28;20041;-59
2021/01/07 06:29:43;;;;;;;4.85;1.98;;;;;;;;;;5078911;28;20094;-60
2021/01/07 06:32:09;;;;;;;5.45;2.13;;;;;;;;;;5083636;28;20032;-59
2021/01/07 06:34:39;;;;;;;4.50;2.10;;;;;;;;;;5082754;28;20112;-59
2021/01/07 06:37:06;;;;;;;5.68;2.42;;;;;;;;;;5064493;28;20036;-60
2021/01/07 06:39:40;;;;;;;5.50;2.13;;;;;;;;;;5082684;28;20088;-60
2021/01/07 06:42:07;;;;;;;5.22;2.03;;;;;;;;;;5071049;28;20055;-60
2021/01/07 06:44:33;;;;;;;5.60;2.30;;;;;;;;;;5061038;28;20044;-60
2021/01/07 06:46:59;;;;;;;5.40;2.28;;;;;;;;;;5071402;28;20055;-60
2021/01/07 06:49:27;;;;;;;7.38;2.67;;;;;;;;;;5081148;28;20024;-59
2021/01/07 06:51:55;;;;;;;6.57;2.10;;;;;;;;;;5068246;28;20119;-59
2021/01/07 06:54:23;;;;;;;4.63;2.00;;;;;;;;;;5061177;28;20115;-59
2021/01/07 06:56:49;;;;;;;;;;;;;;;;;;5058916;28;20045;-60
2021/01/07 06:59:16;;;;;;;5.78;2.20;;;;;;;;;;5076649;28;19969;-60
2021/01/07 07:01:48;;;;;;;7.15;2.10;;;;;;;;;;5058828;28;20048;-59
2021/01/07 07:04:22;;;;;;;4.93;2.03;;;;;;;;;;5061944;28;20044;-60
2021/01/07 07:06:56;;;;;;;5.00;2.03;;;;;;;;;;5058550;28;20428;-60
2021/01/07 07:09:24;;;;;;;5.80;2.13;;;;;;;;;;5062569;28;20049;-60
2021/01/07 07:11:54;;;;;;;4.68;1.75;;;;;;;;;;5060109;28;20467;-60
2021/01/07 07:14:20;;;;;;;6.90;2.38;;;;;;;;;;5061479;28;20079;-59
2021/01/07 07:16:47;;;;;;;4.05;2.05;;;;;;;;;;5058658;28;20029;-60
2021/01/07 07:19:22;;;;;;;8.45;2.40;;;;;;;;;;5060552;28;20040;-59
2021/01/07 07:21:52;;;;;;;10.48;3.10;;;;;;;;;;5059813;28;20044;-60
2021/01/07 07:24:19;;;;;;;10.88;4.18;;;;;;;;;;5061880;28;20032;-60
2021/01/07 07:26:46;;;;;;;7.20;2.50;;;;;;;;;;5075696;28;20074;-60
2021/01/07 07:29:13;;;;;;;6.90;2.55;;;;;;;;;;5075128;28;20046;-60
2021/01/07 07:31:43;;;;;;;10.60;2.40;;;;;;;;;;5059670;28;20085;-59
2021/01/07 07:34:09;;;;;;;5.78;2.58;;;;;;;;;;5052074;28;20479;-58
2021/01/07 07:36:36;;;;;;;9.55;2.83;;;;;;;;;;5056043;28;20037;-60
2021/01/07 07:39:03;;;;;;;8.52;2.55;;;;;;;;;;5073215;28;20042;-60
2021/01/07 07:41:29;;;;;;;5.07;2.30;;;;;;;;;;5068913;28;20072;-59
2021/01/07 07:43:58;;;;;;;6.88;2.55;;;;;;;;;;5056660;28;20041;-59
2021/01/07 07:46:25;;;;;;;5.05;2.28;;;;;;;;;;5053171;28;20047;-60
2021/01/07 07:48:57;;;;;;;5.72;2.30;;;;;;;;;;5050212;28;20063;-59
2021/01/07 07:51:23;;;;;;;7.50;2.80;;;;;;;;;;5050211;28;20037;-60
2021/01/07 07:54:01;;;;;;;11.20;3.20;;;;;;;;;;5045622;28;20043;-60
2021/01/07 07:56:27;;;;;;;9.10;3.53;;;;;;;;;;5062375;28;20075;-60
2021/01/07 07:58:58;;;;;;;19.30;6.68;;;;;;;;;;5058230;28;20040;-60
2021/01/07 08:01:34;;;;;;;15.13;5.05;;;;;;;;;;5083558;28;20040;-59
2021/01/07 08:04:01;;;;;;;10.48;3.50;;;;;;;;;;5065499;28;20044;-60
2021/01/07 08:06:27;;;;;;;11.93;3.75;;;;;;;;;;5064010;28;20033;-60
2021/01/07 08:09:02;;;;;;;11.52;3.63;;;;;;;;;;5063494;28;20041;-59
2021/01/07 08:11:30;;;;;;;10.18;3.03;;;;;;;;;;5077918;28;20033;-60
2021/01/07 08:13:59;;;;;;;8.25;3.20;;;;;;;;;;5059467;28;20032;-52
2021/01/07 08:16:26;;;;;;;6.78;2.92;;;;;;;;;;5042088;28;20057;-58
2021/01/07 08:18:52;;;;;;;11.02;3.33;;;;;;;;;;5046941;28;20036;-62
2021/01/07 08:21:18;;;;;;;8.63;3.28;;;;;;;;;;5049634;28;20026;-60
2021/01/07 08:23:45;;;;;;;10.13;3.65;;;;;;;;;;5043469;28;20503;-60
2021/01/07 08:26:14;;;;;;;8.38;3.17;;;;;;;;;;5040000;28;20033;-60
2021/01/07 08:28:43;;;;;;;8.98;3.22;;;;;;;;;;5058641;28;20060;-60
2021/01/07 08:31:11;;;;;;;7.13;2.50;;;;;;;;;;5060957;28;20118;-59
2021/01/07 08:33:38;;;;;;;6.18;2.50;;;;;;;;;;5051515;28;20033;-60
2021/01/07 08:36:04;;;;;;;6.85;2.78;;;;;;;;;;5060930;28;20029;-60
2021/01/07 08:38:32;;;;;;;6.53;2.55;;;;;;;;;;5074707;28;20048;-59
2021/01/07 08:41:10;;;;;;;5.20;2.30;;;;;;;;;;5067901;28;20037;-60
2021/01/07 08:43:37;;;;;;;6.85;2.55;;;;;;;;;;5083463;28;20051;-59
2021/01/07 08:46:17;;;;;;;6.15;2.55;;;;;;;;;;5078058;28;20047;-60
2021/01/07 08:48:44;;;;;;;6.55;2.60;;;;;;;;;;5084453;28;20040;-60
2021/01/07 08:51:20;;;;;;;9.48;2.67;;;;;;;;;;5078684;28;20040;-60
2021/01/07 08:53:50;;;;;;;4.38;2.10;;;;;;;;;;5083374;28;20399;-60
2021/01/07 08:56:32;;;;;;;5.47;2.25;;;;;;;;;;5071051;28;20067;-60
2021/01/07 08:59:17;;;;;;;9.55;3.65;;;;;;;;;;5064095;28;20047;-61
2021/01/07 09:01:44;;;;;;;7.60;2.55;;;;;;;;;;5067665;28;20040;-60
2021/01/07 09:04:26;;;;;;;6.38;2.50;;;;;;;;;;5082815;28;20047;-61
2021/01/07 09:06:53;;;;;;;5.43;2.47;;;;;;;;;;5079143;28;20089;-61
2021/01/07 09:09:19;;;;;;;5.35;2.38;;;;;;;;;;5083949;28;20045;-60
2021/01/07 09:11:45;;;;;;;7.43;2.83;;;;;;;;;;5082691;28;20058;-60
2021/01/07 09:14:11;;;;;;;5.47;1.88;;;;;;;;;;5084959;28;20142;-60
2021/01/07 09:16:37;;;;;;;7.30;2.53;;;;;;;;;;5067304;28;20060;-61
2021/01/07 09:19:05;;;;;;;6.65;2.45;;;;;;;;;;5066930;28;20029;-61
2021/01/07 09:21:31;;;;;;;6.43;2.70;;;;;;;;;;5063039;28;20041;-61
2021/01/07 09:23:57;;;;;;;4.60;2.00;;;;;;;;;;5083963;28;20032;-61
2021/01/07 09:26:28;;;;;;;7.22;2.20;;;;;;;;;;5082700;28;20040;-60
2021/01/07 09:28:54;;;;;;;7.40;2.30;;;;;;;;;;5057889;28;20056;-61
2021/01/07 09:31:20;;;;;;;6.20;2.30;;;;;;;;;;5062908;28;20037;-60
2021/01/07 09:33:46;;;;;;;7.65;2.50;;;;;;;;;;5059426;28;20081;-60
2021/01/07 09:36:13;;;;;;;7.78;2.80;;;;;;;;;;5063980;28;20064;-60
2021/01/07 09:38:39;;;;;;;7.75;2.47;;;;;;;;;;5074135;28;20064;-61
2021/01/07 09:41:05;;;;;;;6.70;2.45;;;;;;;;;;5081315;28;20044;-61
2021/01/07 09:43:33;;;;;;;5.13;2.17;;;;;;;;;;5080371;28;20056;-60
2021/01/07 09:45:59;;;;;;;5.82;2.33;;;;;;;;;;5073252;28;20051;-60
2021/01/07 09:48:25;;;;;;;5.57;2.33;;;;;;;;;;5070921;28;20033;-60
2021/01/07 09:50:51;;;;;;;7.55;2.53;;;;;;;;;;5063240;28;20037;-61
2021/01/07 09:53:21;;;;;;;4.78;1.98;;;;;;;;;;5062945;28;20032;-60
2021/01/07 09:55:48;;;;;;;7.93;2.33;;;;;;;;;;5082411;28;20040;-60
2021/01/07 09:58:14;;;;;;;6.25;2.05;;;;;;;;;;5075433;28;20162;-60
2021/01/07 10:00:40;;;;;;;5.30;2.35;;;;;;;;;;5062865;28;20063;-60
2021/01/07 10:03:08;;;;;;;6.05;2.45;;;;;;;;;;5060693;28;20044;-60
2021/01/07 10:05:36;;;;;;;8.32;2.92;;;;;;;;;;5081339;28;20040;-60
2021/01/07 10:08:02;;;;;;;7.32;2.65;;;;;;;;;;5083621;28;20137;-61
2021/01/07 10:10:29;;;;;;;4.30;1.98;;;;;;;;;;5061558;28;20032;-60
2021/01/07 10:12:56;;;;;;;4.78;1.92;;;;;;;;;;5062870;28;20106;-60
2021/01/07 10:15:23;;;;;;;5.63;2.13;;;;;;;;;;5074117;28;20060;-60
2021/01/07 10:17:49;;;;;;;4.00;2.10;;;;;;;;;;5081098;28;20032;-61
2021/01/07 10:20:15;;;;;;;4.75;1.60;;;;;;;;;;5065495;28;20052;-60
2021/01/07 10:22:42;;;;;;;2.97;1.60;;;;;;;;;;5062272;28;20044;-61
2021/01/07 10:25:09;;;;;;;3.22;1.60;;;;;;;;;;5068925;28;20050;-60
2021/01/07 10:27:36;;;;;;;4.13;1.80;;;;;;;;;;5082418;28;20044;-60
2021/01/07 10:30:05;;;;;;;3.60;1.63;;;;;;;;;;5070050;28;20053;-60
2021/01/07 10:32:32;;;;;;;3.78;1.38;;;;;;;;;;5062054;28;20044;-60
2021/01/07 10:34:59;;;;;;;3.72;1.27;;;;;;;;;;5065115;28;20129;-61
2021/01/07 10:37:25;;;;;;;4.55;1.65;;;;;;;;;;5082737;28;20065;-61
2021/01/07 10:39:53;;;;;;;2.70;1.58;;;;;;;;;;5076793;28;20052;-61
2021/01/07 10:42:21;;;;;;;3.13;1.63;;;;;;;;;;5070761;28;20040;-60
2021/01/07 10:44:50;;;;;;;2.97;1.40;;;;;;;;;;5080973;28;20052;-60
2021/01/07 10:47:16;;;;;;;3.83;1.45;;;;;;;;;;5081645;28;20040;-60
2021/01/07 10:49:43;;;;;;;3.60;1.85;;;;;;;;;;5080684;28;20036;-60
2021/01/07 10:52:23;;;;;;;2.88;1.27;;;;;;;;;;5052134;28;20065;-60
2021/01/07 10:54:57;;;;;;;6.57;1.45;;;;;;;;;;5057933;28;20052;-60
2021/01/07 10:57:50;;;;;;;3.28;1.60;;;;;;;;;;5044777;28;20040;-60
2021/01/07 11:00:22;;;;;;;4.07;1.50;;;;;;;;;;5074855;28;20041;-61
2021/01/07 11:02:56;;;;;;;2.92;1.50;;;;;;;;;;5060078;28;20049;-61
2021/01/07 11:05:23;;;;;;;3.58;1.90;;;;;;;;;;5062484;28;20146;-61
2021/01/07 11:08:07;;;;;;;3.83;1.63;;;;;;;;;;5058890;28;20056;-60
2021/01/07 11:10:34;;;;;;;3.30;1.40;;;;;;;;;;5060426;28;20059;-60
2021/01/07 11:13:02;;;;;;;2.47;1.27;;;;;;;;;;5061956;28;20040;-60
2021/01/07 11:15:29;;;;;;;2.35;1.20;;;;;;;;;;5061322;28;20055;-60
2021/01/07 11:17:57;;;;;;;4.97;1.30;;;;;;;;;;5065412;28;20036;-61
2021/01/07 11:20:25;;;;;;;4.47;1.30;;;;;;;;;;5079865;28;20044;-60
2021/01/07 11:22:53;;;;;;;1.75;1.00;;;;;;;;;;5052705;28;20085;-62
2021/01/07 11:25:20;;;;;;;2.45;1.25;;;;;;;;;;5059695;28;20033;-60
2021/01/07 11:27:46;;;;;;;2.20;1.00;;;;;;;;;;5068803;28;20109;-61
2021/01/07 11:30:13;;;;;;;2.83;1.17;;;;;;;;;;5080182;28;20050;-60
2021/01/07 11:32:40;;;;;;;1.70;1.15;;;;;;;;;;5078024;28;20048;-60
2021/01/07 11:35:07;;;;;;;2.50;1.10;;;;;;;;;;5062188;28;20048;-60
2021/01/07 11:37:40;;;;;;;3.47;1.30;;;;;;;;;;5066222;28;20117;-60
2021/01/07 11:40:08;;;;;;;2.47;1.13;;;;;;;;;;5081426;28;20044;-60
2021/01/07 11:42:42;;;;;;;2.88;1.30;;;;;;;;;;5077424;28;20058;-60
2021/01/07 11:45:12;;;;;;;1.67;1.00;;;;;;;;;;5081475;28;20040;-61
2021/01/07 11:47:41;;;;;;;2.03;1.10;;;;;;;;;;5071892;28;20032;-61
2021/01/07 11:50:09;;;;;;;2.58;1.10;;;;;;;;;;5061111;28;20033;-60
2021/01/07 11:52:37;;;;;;;3.00;0.98;;;;;;;;;;5060070;28;20051;-60
2021/01/07 11:55:06;;;;;;;2.07;1.00;;;;;;;;;;5082387;28;20075;-60
2021/01/07 11:57:39;;;;;;;2.10;0.75;;;;;;;;;;5080539;28;20028;-60
2021/01/07 12:00:08;;;;;;;1.95;0.93;;;;;;;;;;5083183;28;20040;-60
2021/01/07 12:02:35;;;;;;;3.03;1.10;;;;;;;;;;5083122;28;20040;-60
2021/01/07 12:05:01;;;;;;;3.00;1.40;;;;;;;;;;5069909;28;20114;-60
2021/01/07 12:07:34;;;;;;;1.15;0.80;;;;;;;;;;5064811;28;20048;-60
2021/01/07 12:10:01;;;;;;;1.42;0.80;;;;;;;;;;5057723;28;20052;-60
2021/01/07 12:12:31;;;;;;;8.98;0.98;;;;;;;;;;5051232;28;20158;-60
2021/01/07 12:14:57;;;;;;;8.77;2.08;;;;;;;;;;5063521;28;20037;-61
2021/01/07 12:17:23;;;;;;;5.47;1.40;;;;;;;;;;5080104;28;20273;-60
2021/01/07 12:19:50;;;;;;;1.73;0.80;;;;;;;;;;5063535;28;20064;-60
2021/01/07 12:22:20;;;;;;;0.70;0.52;;;;;;;;;;5059539;28;20126;-60
2021/01/07 12:24:48;;;;;;;2.33;0.55;;;;;;;;;;5065320;28;20036;-61
2021/01/07 12:27:14;;;;;;;3.78;0.80;;;;;;;;;;5079589;28;20036;-60
2021/01/07 12:29:41;;;;;;;3.97;0.90;;;;;;;;;;5069012;28;20159;-61
2021/01/07 12:32:09;;;;;;;4.45;0.90;;;;;;;;;;5051868;28;20048;-61
2021/01/07 12:34:37;;;;;;;3.00;0.80;;;;;;;;;;5046762;28;20030;-60
2021/01/07 12:37:07;;;;;;;2.67;0.70;;;;;;;;;;5063802;28;20104;-60
2021/01/07 12:39:41;;;;;;;7.72;0.80;;;;;;;;;;5072995;28;20044;-60
2021/01/07 12:42:11;;;;;;;2.00;0.80;;;;;;;;;;5067788;28;20037;-60
2021/01/07 12:44:42;;;;;;;1.92;0.70;;;;;;;;;;5073228;28;20070;-61
2021/01/07 12:47:11;;;;;;;5.65;0.73;;;;;;;;;;5059695;28;20337;-60
2021/01/07 12:49:39;;;;;;;2.15;0.77;;;;;;;;;;5059693;28;20047;-60
2021/01/07 12:52:07;;;;;;;2.13;0.60;;;;;;;;;;5063450;28;20048;-60
2021/01/07 12:54:34;;;;;;;2.05;1.00;;;;;;;;;;5063008;28;20077;-61
2021/01/07 12:57:03;;;;;;;2.20;0.80;;;;;;;;;;5052250;28;20029;-61
2021/01/07 13:02:37;;;;;;;2.30;0.93;;;;;;;;;;5070308;28;20051;-60
2021/01/07 13:05:08;;;;;;;6.18;1.55;;;;;;;;;;5075938;28;20033;-59
2021/01/07 13:07:36;;;;;;;4.18;1.42;;;;;;;;;;5078449;28;20084;-62
2021/01/07 13:10:03;;;;;;;7.63;1.52;;;;;;;;;;5060532;28;20144;-62
2021/01/07 13:12:33;;;;;;;3.47;1.17;;;;;;;;;;5079001;28;20041;-62
2021/01/07 13:14:59;;;;;;;4.00;1.20;;;;;;;;;;5083134;28;20052;-62
2021/01/07 13:17:25;;;;;;;2.55;1.20;;;;;;;;;;5066063;28;20059;-62
2021/01/07 13:19:53;;;;;;;2.92;1.20;;;;;;;;;;5082598;28;20055;-62
2021/01/07 13:22:20;;;;;;;7.80;1.42;;;;;;;;;;5064942;28;20099;-62
2021/01/07 13:24:46;;;;;;;3.05;1.20;;;;;;;;;;5063219;28;20044;-63
2021/01/07 13:27:13;;;;;;;4.40;1.58;;;;;;;;;;5070880;28;20125;-62
2021/01/07 13:29:39;;;;;;;8.27;2.28;;;;;;;;;;5085393;28;20036;-62
2021/01/07 13:32:05;;;;;;;15.18;3.25;;;;;;;;;;5073751;28;20095;-62
2021/01/07 13:34:32;;;;;;;5.35;1.70;;;;;;;;;;5062668;28;20047;-62
2021/01/07 13:36:59;;;;;;;6.57;1.45;;;;;;;;;;5062955;28;20076;-62
2021/01/07 13:39:25;;;;;;;5.82;1.73;;;;;;;;;;5083204;28;20048;-62
2021/01/07 13:41:52;;;;;;;8.00;1.33;;;;;;;;;;5075767;28;20063;-61
2021/01/07 13:44:19;;;;;;;9.13;2.00;;;;;;;;;;5062551;28;20029;-62
2021/01/07 13:46:47;;;;;;;4.30;1.10;;;;;;;;;;5062880;28;20068;-62
2021/01/07 13:49:14;;;;;;;6.10;1.75;;;;;;;;;;5079446;28;20092;-62
2021/01/07 13:51:43;;;;;;;3.58;1.08;;;;;;;;;;5081035;28;20163;-62
2021/01/07 13:54:12;;;;;;;4.35;1.60;;;;;;;;;;5058559;28;20040;-62
2021/01/07 13:56:38;;;;;;;3.03;1.33;;;;;;;;;;5060891;28;20024;-62
2021/01/07 13:59:04;;;;;;;6.50;1.45;;;;;;;;;;5072393;28;20024;-62
2021/01/07 14:01:31;;;;;;;3.72;1.17;;;;;;;;;;5083992;28;20117;-62
2021/01/07 14:03:57;;;;;;;2.20;1.27;;;;;;;;;;5074461;28;20083;-62
2021/01/07 14:06:24;;;;;;;3.97;1.38;;;;;;;;;;5062089;28;20049;-62
2021/01/07 14:08:54;;;;;;;2.03;1.10;;;;;;;;;;5066292;28;20029;-62
2021/01/07 14:11:22;;;;;;;4.30;0.93;;;;;;;;;;5078928;28;20041;-62
2021/01/07 14:13:48;;;;;;;2.65;0.85;;;;;;;;;;5083661;28;20037;-62
2021/01/07 14:16:14;;;;;;;4.03;1.10;;;;;;;;;;5082197;28;20028;-62
2021/01/07 14:18:43;;;;;;;7.40;2.42;;;;;;;;;;5078376;28;20051;-62
2021/01/07 14:21:09;;;;;;;4.70;1.58;;;;;;;;;;5082725;28;20032;-62
2021/01/07 14:23:35;;;;;;;2.65;1.00;;;;;;;;;;5075721;28;20051;-62
2021/01/07 14:26:04;;;;;;;2.53;1.00;;;;;;;;;;5062146;28;20028;-62
2021/01/07 14:28:36;;;;;;;7.25;1.52;;;;;;;;;;5059919;28;20044;-62
2021/01/07 14:31:02;;;;;;;2.28;0.82;;;;;;;;;;5063350;28;20033;-62
2021/01/07 14:33:29;;;;;;;1.77;0.80;;;;;;;;;;5062334;28;20075;-63
2021/01/07 14:35:56;;;;;;;1.85;0.93;;;;;;;;;;5057853;28;20056;-63
2021/01/07 14:38:23;;;;;;;4.15;1.10;;;;;;;;;;5075773;28;20051;-63
2021/01/07 14:40:49;;;;;;;6.57;0.77;;;;;;;;;;5063423;28;20056;-63
2021/01/07 14:43:19;;;;;;;6.30;0.80;;;;;;;;;;5079708;28;20040;-62
2021/01/07 14:45:48;;;;;;;1.35;0.70;;;;;;;;;;5064219;28;20060;-62
2021/01/07 14:48:14;;;;;;;;;;;;;;;;;;5062698;28;20052;-61